Somerset, PA (15510)

6:49 AM EDT on July 24, 2017 (GMT -0400)
MAS869 | | Change Station

Elev 2148 ft 39.99 °N, 79.09 °W | Updated 76 days ago

Overcast
Overcast
34.0 °F
Feels Like 34 °F
N
0.0
Wind Variable Wind from SE

Today
High -- | Low -- °F
--% Chance of Precip.
Yesterday
High -- | Low -- °F
Precip. -- in
Pressure 29.87 in
Visibility 10.0 miles
Clouds Few 400 ft
Mostly Cloudy 800 ft
Overcast 1200 ft
Windchill 34 °F
Dew Point 32 °F
Humidity 92%
Rainfall 0.32 in
Snow Depth Not available.
6:07 AM 8:37 PM
New Moon, 2% visible
SPECI KJST 241014Z AUTO 27012G21KT 10SM FEW004 BKN008 OVC012 18/17 A2987 RMK AO2 T01830172
Pressure 29.87 in
Visibility 10.0 miles
Clouds Few 400 ft
Mostly Cloudy 800 ft
Overcast 1200 ft
Windchill 34 °F
Dew Point 32 °F
Humidity 92%
Rainfall 0.32 in
Snow Depth Not available.
6:07 AM 8:37 PM
New Moon, 2% visible
SPECI KJST 241014Z AUTO 27012G21KT 10SM FEW004 BKN008 OVC012 18/17 A2987 RMK AO2 T01830172

Get Severe Weather Alerts

Thanks for signing up!

Be on the lookout for a verification email in your inbox.

You'll start receiving the daily forecast at 6 AM.

×

10-Day Weather Forecast

Almanac

Astronomy

Jul. 24, 2017 Rise Set
Actual Time
Civil Twilight
Nautical Twilight
Astronomical Twilight
Moon
Length of Visible Light
Length of Day
Tomorrow will be .
, % of the Moon is Illuminated

Today's Extremes

State Highs State Lows

Community

WunderPhotos

Category 6

Welcome to Category 6. This is the collective home for Weather Underground's featured writeups by Dr. Jeff Masters (right), Bob Henson (left), Chris Burt, and other regular contributors.

Nearby

Air Quality

  Air Quality AQ Index Pollutant
Not available.

Snow Depth

Station Depth Elevation

Earthquake Activity

City Distance Mag. Time & Date
Minimum magnitude displayed is 2.5.

Coastal Water Temperatures

Place Temperature

Stations

Nearby Weather Stations

Station Location Temp. Windchill Dew Point Humidity Wind Precip. Elev Updated Type
                   

Watches & Warnings

There are currently no watches in effect.